sensor_id;sensor_type;location;lat;lon;timestamp;P1;durP1;ratioP1;P2;durP2;ratioP2
31114;SDS011;17764;47.152;9.828;2022-07-29T00:00:06;1.00;;;0.80;;
31114;SDS011;17764;47.152;9.828;2022-07-29T00:02:33;0.80;;;0.70;;
31114;SDS011;17764;47.152;9.828;2022-07-29T00:04:59;2.40;;;0.60;;
31114;SDS011;17764;47.152;9.828;2022-07-29T00:07:25;0.70;;;0.63;;
31114;SDS011;17764;47.152;9.828;2022-07-29T00:09:51;0.65;;;0.60;;
31114;SDS011;17764;47.152;9.828;2022-07-29T00:12:21;0.73;;;0.70;;
31114;SDS011;17764;47.152;9.828;2022-07-29T00:14:47;2.13;;;0.70;;
31114;SDS011;17764;47.152;9.828;2022-07-29T00:17:13;1.67;;;0.70;;
31114;SDS011;17764;47.152;9.828;2022-07-29T00:19:39;0.70;;;0.68;;
31114;SDS011;17764;47.152;9.828;2022-07-29T00:22:05;0.70;;;0.70;;
31114;SDS011;17764;47.152;9.828;2022-07-29T00:24:31;2.05;;;0.80;;
31114;SDS011;17764;47.152;9.828;2022-07-29T00:26:57;0.98;;;0.68;;
31114;SDS011;17764;47.152;9.828;2022-07-29T00:29:23;1.02;;;0.90;;
31114;SDS011;17764;47.152;9.828;2022-07-29T00:31:50;0.88;;;0.80;;
31114;SDS011;17764;47.152;9.828;2022-07-29T00:34:16;1.08;;;0.82;;
31114;SDS011;17764;47.152;9.828;2022-07-29T00:37:01;1.85;;;0.60;;
31114;SDS011;17764;47.152;9.828;2022-07-29T00:39:27;1.42;;;0.65;;
31114;SDS011;17764;47.152;9.828;2022-07-29T00:41:53;1.10;;;0.70;;
31114;SDS011;17764;47.152;9.828;2022-07-29T00:44:19;0.60;;;0.60;;
31114;SDS011;17764;47.152;9.828;2022-07-29T00:46:45;1.13;;;0.65;;
31114;SDS011;17764;47.152;9.828;2022-07-29T00:49:11;0.85;;;0.70;;
31114;SDS011;17764;47.152;9.828;2022-07-29T00:51:38;0.98;;;0.80;;
31114;SDS011;17764;47.152;9.828;2022-07-29T00:54:04;0.80;;;0.70;;
31114;SDS011;17764;47.152;9.828;2022-07-29T00:56:31;0.95;;;0.70;;
31114;SDS011;17764;47.152;9.828;2022-07-29T00:58:57;0.93;;;0.60;;
31114;SDS011;17764;47.152;9.828;2022-07-29T01:01:24;1.25;;;0.60;;
31114;SDS011;17764;47.152;9.828;2022-07-29T01:03:50;0.77;;;0.77;;
31114;SDS011;17764;47.152;9.828;2022-07-29T01:06:16;1.70;;;0.65;;
31114;SDS011;17764;47.152;9.828;2022-07-29T01:08:42;0.70;;;0.63;;
31114;SDS011;17764;47.152;9.828;2022-07-29T01:11:09;1.77;;;0.82;;
31114;SDS011;17764;47.152;9.828;2022-07-29T01:13:35;0.80;;;0.80;;
31114;SDS011;17764;47.152;9.828;2022-07-29T01:16:48;0.93;;;0.90;;
31114;SDS011;17764;47.152;9.828;2022-07-29T01:19:00;1.33;;;0.82;;
31114;SDS011;17764;47.152;9.828;2022-07-29T01:29:44;0.65;;;0.65;;
31114;SDS011;17764;47.152;9.828;2022-07-29T01:32:15;0.90;;;0.60;;
31114;SDS011;17764;47.152;9.828;2022-07-29T01:40:36;0.90;;;0.70;;
31114;SDS011;17764;47.152;9.828;2022-07-29T01:43:11;1.25;;;0.75;;
31114;SDS011;17764;47.152;9.828;2022-07-29T01:45:57;0.98;;;0.90;;
31114;SDS011;17764;47.152;9.828;2022-07-29T01:48:34;1.10;;;0.95;;
31114;SDS011;17764;47.152;9.828;2022-07-29T01:51:04;0.82;;;0.82;;
31114;SDS011;17764;47.152;9.828;2022-07-29T01:56:45;0.65;;;0.60;;
31114;SDS011;17764;47.152;9.828;2022-07-29T01:59:12;0.80;;;0.80;;
31114;SDS011;17764;47.152;9.828;2022-07-29T02:01:39;1.33;;;0.80;;
31114;SDS011;17764;47.152;9.828;2022-07-29T02:04:07;0.77;;;0.75;;
31114;SDS011;17764;47.152;9.828;2022-07-29T02:06:35;1.42;;;1.20;;
31114;SDS011;17764;47.152;9.828;2022-07-29T02:09:03;0.93;;;0.80;;
31114;SDS011;17764;47.152;9.828;2022-07-29T02:11:31;0.88;;;0.88;;
31114;SDS011;17764;47.152;9.828;2022-07-29T02:13:58;0.95;;;0.90;;
31114;SDS011;17764;47.152;9.828;2022-07-29T02:16:25;1.05;;;0.70;;
31114;SDS011;17764;47.152;9.828;2022-07-29T02:18:52;1.20;;;0.70;;
31114;SDS011;17764;47.152;9.828;2022-07-29T02:21:21;2.05;;;0.70;;
31114;SDS011;17764;47.152;9.828;2022-07-29T02:23:49;1.00;;;0.60;;
31114;SDS011;17764;47.152;9.828;2022-07-29T02:26:19;0.75;;;0.75;;
31114;SDS011;17764;47.152;9.828;2022-07-29T02:28:46;1.70;;;0.80;;
31114;SDS011;17764;47.152;9.828;2022-07-29T02:31:14;1.77;;;0.80;;
31114;SDS011;17764;47.152;9.828;2022-07-29T02:33:43;0.70;;;0.70;;
31114;SDS011;17764;47.152;9.828;2022-07-29T02:36:09;0.77;;;0.75;;
31114;SDS011;17764;47.152;9.828;2022-07-29T02:38:36;1.08;;;0.98;;
31114;SDS011;17764;47.152;9.828;2022-07-29T02:41:16;0.80;;;0.80;;
31114;SDS011;17764;47.152;9.828;2022-07-29T02:43:43;1.25;;;0.80;;
31114;SDS011;17764;47.152;9.828;2022-07-29T02:46:11;2.25;;;0.90;;
31114;SDS011;17764;47.152;9.828;2022-07-29T02:48:55;1.50;;;0.70;;
31114;SDS011;17764;47.152;9.828;2022-07-29T02:51:27;1.00;;;0.90;;
31114;SDS011;17764;47.152;9.828;2022-07-29T02:53:56;1.27;;;0.80;;
31114;SDS011;17764;47.152;9.828;2022-07-29T02:56:27;0.85;;;0.85;;
31114;SDS011;17764;47.152;9.828;2022-07-29T02:58:54;0.88;;;0.70;;
31114;SDS011;17764;47.152;9.828;2022-07-29T03:01:23;1.52;;;0.90;;
31114;SDS011;17764;47.152;9.828;2022-07-29T03:03:51;1.25;;;0.90;;
31114;SDS011;17764;47.152;9.828;2022-07-29T03:06:19;0.82;;;0.80;;
31114;SDS011;17764;47.152;9.828;2022-07-29T03:08:46;1.40;;;0.80;;
31114;SDS011;17764;47.152;9.828;2022-07-29T03:11:13;1.02;;;0.70;;
31114;SDS011;17764;47.152;9.828;2022-07-29T03:13:39;1.27;;;0.65;;
31114;SDS011;17764;47.152;9.828;2022-07-29T03:16:05;0.88;;;0.70;;
31114;SDS011;17764;47.152;9.828;2022-07-29T03:18:33;2.63;;;0.88;;
31114;SDS011;17764;47.152;9.828;2022-07-29T03:20:59;0.80;;;0.60;;
31114;SDS011;17764;47.152;9.828;2022-07-29T03:23:25;1.55;;;0.82;;
31114;SDS011;17764;47.152;9.828;2022-07-29T03:25:52;1.00;;;0.85;;
31114;SDS011;17764;47.152;9.828;2022-07-29T03:28:19;0.70;;;0.70;;
31114;SDS011;17764;47.152;9.828;2022-07-29T03:30:45;1.13;;;0.90;;
31114;SDS011;17764;47.152;9.828;2022-07-29T03:33:11;0.80;;;0.70;;
31114;SDS011;17764;47.152;9.828;2022-07-29T03:35:38;0.90;;;0.65;;
31114;SDS011;17764;47.152;9.828;2022-07-29T03:38:04;1.23;;;0.90;;
31114;SDS011;17764;47.152;9.828;2022-07-29T03:40:52;0.93;;;0.70;;
31114;SDS011;17764;47.152;9.828;2022-07-29T03:43:21;0.98;;;0.80;;
31114;SDS011;17764;47.152;9.828;2022-07-29T03:45:50;1.60;;;1.02;;
31114;SDS011;17764;47.152;9.828;2022-07-29T03:48:19;1.20;;;1.10;;
31114;SDS011;17764;47.152;9.828;2022-07-29T03:50:46;1.25;;;1.15;;
31114;SDS011;17764;47.152;9.828;2022-07-29T03:53:13;1.00;;;0.90;;
31114;SDS011;17764;47.152;9.828;2022-07-29T03:55:48;1.50;;;1.10;;
31114;SDS011;17764;47.152;9.828;2022-07-29T03:58:18;1.48;;;1.00;;
31114;SDS011;17764;47.152;9.828;2022-07-29T04:00:45;1.13;;;0.90;;
31114;SDS011;17764;47.152;9.828;2022-07-29T04:03:12;2.10;;;1.20;;
31114;SDS011;17764;47.152;9.828;2022-07-29T04:05:38;3.08;;;1.20;;
31114;SDS011;17764;47.152;9.828;2022-07-29T04:08:05;1.30;;;0.90;;
31114;SDS011;17764;47.152;9.828;2022-07-29T04:10:31;1.17;;;0.95;;
31114;SDS011;17764;47.152;9.828;2022-07-29T04:12:57;1.10;;;0.90;;
31114;SDS011;17764;47.152;9.828;2022-07-29T04:15:23;1.25;;;1.08;;
31114;SDS011;17764;47.152;9.828;2022-07-29T04:17:49;1.20;;;1.10;;
31114;SDS011;17764;47.152;9.828;2022-07-29T04:20:15;1.45;;;1.05;;
31114;SDS011;17764;47.152;9.828;2022-07-29T04:22:41;1.30;;;0.93;;
31114;SDS011;17764;47.152;9.828;2022-07-29T04:25:07;1.20;;;1.10;;
31114;SDS011;17764;47.152;9.828;2022-07-29T04:27:33;1.60;;;1.02;;
31114;SDS011;17764;47.152;9.828;2022-07-29T04:29:59;1.00;;;0.90;;
31114;SDS011;17764;47.152;9.828;2022-07-29T04:32:25;2.00;;;1.00;;
31114;SDS011;17764;47.152;9.828;2022-07-29T04:34:52;1.02;;;1.00;;
31114;SDS011;17764;47.152;9.828;2022-07-29T04:37:18;2.08;;;1.10;;
31114;SDS011;17764;47.152;9.828;2022-07-29T04:39:44;1.40;;;1.08;;
31114;SDS011;17764;47.152;9.828;2022-07-29T04:42:10;1.20;;;1.00;;
31114;SDS011;17764;47.152;9.828;2022-07-29T04:44:36;1.02;;;0.90;;
31114;SDS011;17764;47.152;9.828;2022-07-29T04:47:02;2.30;;;1.30;;
31114;SDS011;17764;47.152;9.828;2022-07-29T04:49:28;1.42;;;0.90;;
31114;SDS011;17764;47.152;9.828;2022-07-29T04:51:54;1.90;;;1.08;;
31114;SDS011;17764;47.152;9.828;2022-07-29T04:54:20;2.60;;;1.00;;
31114;SDS011;17764;47.152;9.828;2022-07-29T04:56:46;1.25;;;1.08;;
31114;SDS011;17764;47.152;9.828;2022-07-29T04:59:12;2.90;;;1.20;;
31114;SDS011;17764;47.152;9.828;2022-07-29T05:01:38;1.10;;;1.00;;
31114;SDS011;17764;47.152;9.828;2022-07-29T05:04:04;2.00;;;1.00;;
31114;SDS011;17764;47.152;9.828;2022-07-29T05:06:30;1.05;;;0.95;;
31114;SDS011;17764;47.152;9.828;2022-07-29T05:08:56;2.92;;;1.00;;
31114;SDS011;17764;47.152;9.828;2022-07-29T05:11:22;1.60;;;0.90;;
31114;SDS011;17764;47.152;9.828;2022-07-29T05:13:48;2.70;;;1.20;;
31114;SDS011;17764;47.152;9.828;2022-07-29T05:16:14;2.35;;;1.05;;
31114;SDS011;17764;47.152;9.828;2022-07-29T05:18:41;1.33;;;1.13;;
31114;SDS011;17764;47.152;9.828;2022-07-29T05:21:07;1.50;;;1.17;;
31114;SDS011;17764;47.152;9.828;2022-07-29T05:23:33;2.92;;;1.30;;
31114;SDS011;17764;47.152;9.828;2022-07-29T05:25:59;1.73;;;1.20;;
31114;SDS011;17764;47.152;9.828;2022-07-29T05:28:25;1.77;;;1.30;;
31114;SDS011;17764;47.152;9.828;2022-07-29T05:30:51;2.28;;;1.20;;
31114;SDS011;17764;47.152;9.828;2022-07-29T05:33:17;0.90;;;0.90;;
31114;SDS011;17764;47.152;9.828;2022-07-29T05:35:43;1.20;;;1.00;;
31114;SDS011;17764;47.152;9.828;2022-07-29T05:38:09;1.20;;;0.90;;
31114;SDS011;17764;47.152;9.828;2022-07-29T05:40:35;2.65;;;1.10;;
31114;SDS011;17764;47.152;9.828;2022-07-29T05:43:01;1.65;;;1.30;;
31114;SDS011;17764;47.152;9.828;2022-07-29T05:45:27;1.88;;;0.93;;
31114;SDS011;17764;47.152;9.828;2022-07-29T05:47:53;1.90;;;1.20;;
31114;SDS011;17764;47.152;9.828;2022-07-29T05:50:19;2.13;;;1.45;;
31114;SDS011;17764;47.152;9.828;2022-07-29T05:52:45;2.17;;;1.20;;
31114;SDS011;17764;47.152;9.828;2022-07-29T05:55:11;1.90;;;1.40;;
31114;SDS011;17764;47.152;9.828;2022-07-29T05:57:37;0.90;;;0.90;;
31114;SDS011;17764;47.152;9.828;2022-07-29T06:00:03;1.25;;;1.02;;
31114;SDS011;17764;47.152;9.828;2022-07-29T06:02:30;1.42;;;1.00;;
31114;SDS011;17764;47.152;9.828;2022-07-29T06:04:56;2.92;;;1.40;;
31114;SDS011;17764;47.152;9.828;2022-07-29T06:07:22;1.55;;;1.38;;
31114;SDS011;17764;47.152;9.828;2022-07-29T06:09:48;3.08;;;2.00;;
31114;SDS011;17764;47.152;9.828;2022-07-29T06:12:14;1.88;;;1.60;;
31114;SDS011;17764;47.152;9.828;2022-07-29T06:14:40;2.65;;;1.85;;
31114;SDS011;17764;47.152;9.828;2022-07-29T06:17:06;2.53;;;1.40;;
31114;SDS011;17764;47.152;9.828;2022-07-29T06:19:35;1.92;;;1.70;;
31114;SDS011;17764;47.152;9.828;2022-07-29T06:22:01;2.15;;;1.65;;
31114;SDS011;17764;47.152;9.828;2022-07-29T06:24:27;2.92;;;1.50;;
31114;SDS011;17764;47.152;9.828;2022-07-29T06:26:53;1.63;;;1.42;;
31114;SDS011;17764;47.152;9.828;2022-07-29T06:29:19;1.65;;;1.55;;
31114;SDS011;17764;47.152;9.828;2022-07-29T06:31:46;2.97;;;1.42;;
31114;SDS011;17764;47.152;9.828;2022-07-29T06:34:12;2.55;;;1.60;;
31114;SDS011;17764;47.152;9.828;2022-07-29T06:36:38;2.83;;;1.50;;
31114;SDS011;17764;47.152;9.828;2022-07-29T06:39:05;1.92;;;1.58;;
31114;SDS011;17764;47.152;9.828;2022-07-29T06:41:31;4.20;;;1.70;;
31114;SDS011;17764;47.152;9.828;2022-07-29T06:43:57;1.63;;;1.45;;
31114;SDS011;17764;47.152;9.828;2022-07-29T06:46:24;1.98;;;1.52;;
31114;SDS011;17764;47.152;9.828;2022-07-29T06:48:50;1.88;;;1.50;;
31114;SDS011;17764;47.152;9.828;2022-07-29T06:51:17;2.00;;;1.42;;
31114;SDS011;17764;47.152;9.828;2022-07-29T06:53:43;1.95;;;1.50;;
31114;SDS011;17764;47.152;9.828;2022-07-29T06:56:09;2.33;;;1.45;;
31114;SDS011;17764;47.152;9.828;2022-07-29T06:58:37;1.33;;;1.23;;
31114;SDS011;17764;47.152;9.828;2022-07-29T07:01:04;3.05;;;1.63;;
31114;SDS011;17764;47.152;9.828;2022-07-29T07:03:31;1.58;;;1.38;;
31114;SDS011;17764;47.152;9.828;2022-07-29T07:05:57;1.85;;;1.60;;
31114;SDS011;17764;47.152;9.828;2022-07-29T07:08:23;1.92;;;1.50;;
31114;SDS011;17764;47.152;9.828;2022-07-29T07:10:50;2.67;;;1.55;;
31114;SDS011;17764;47.152;9.828;2022-07-29T07:13:17;2.60;;;1.70;;
31114;SDS011;17764;47.152;9.828;2022-07-29T07:15:44;1.90;;;1.70;;
31114;SDS011;17764;47.152;9.828;2022-07-29T07:18:10;1.65;;;1.55;;
31114;SDS011;17764;47.152;9.828;2022-07-29T07:20:36;2.45;;;1.60;;
31114;SDS011;17764;47.152;9.828;2022-07-29T07:23:02;4.95;;;1.63;;
31114;SDS011;17764;47.152;9.828;2022-07-29T07:25:29;2.53;;;1.58;;
31114;SDS011;17764;47.152;9.828;2022-07-29T07:27:55;1.83;;;1.20;;
31114;SDS011;17764;47.152;9.828;2022-07-29T07:30:21;2.92;;;1.42;;
31114;SDS011;17764;47.152;9.828;2022-07-29T07:32:47;1.35;;;1.05;;
31114;SDS011;17764;47.152;9.828;2022-07-29T07:35:13;2.40;;;1.10;;
31114;SDS011;17764;47.152;9.828;2022-07-29T07:37:39;4.00;;;1.40;;
31114;SDS011;17764;47.152;9.828;2022-07-29T07:40:06;2.00;;;1.10;;
31114;SDS011;17764;47.152;9.828;2022-07-29T07:42:32;1.20;;;1.10;;
31114;SDS011;17764;47.152;9.828;2022-07-29T07:44:58;1.50;;;1.05;;
31114;SDS011;17764;47.152;9.828;2022-07-29T07:47:24;1.45;;;1.10;;
31114;SDS011;17764;47.152;9.828;2022-07-29T07:49:51;1.52;;;1.20;;
31114;SDS011;17764;47.152;9.828;2022-07-29T07:52:18;3.08;;;1.00;;
31114;SDS011;17764;47.152;9.828;2022-07-29T07:54:45;1.10;;;1.00;;
31114;SDS011;17764;47.152;9.828;2022-07-29T07:57:12;1.45;;;1.20;;
31114;SDS011;17764;47.152;9.828;2022-07-29T07:59:38;1.45;;;1.10;;
31114;SDS011;17764;47.152;9.828;2022-07-29T08:02:04;1.92;;;1.00;;
31114;SDS011;17764;47.152;9.828;2022-07-29T08:04:30;4.40;;;1.20;;
31114;SDS011;17764;47.152;9.828;2022-07-29T08:06:57;1.27;;;1.15;;
31114;SDS011;17764;47.152;9.828;2022-07-29T08:09:23;1.45;;;1.35;;
31114;SDS011;17764;47.152;9.828;2022-07-29T08:11:50;1.85;;;1.23;;
31114;SDS011;17764;47.152;9.828;2022-07-29T08:14:16;2.00;;;1.40;;
31114;SDS011;17764;47.152;9.828;2022-07-29T08:16:42;2.50;;;1.30;;
31114;SDS011;17764;47.152;9.828;2022-07-29T08:19:08;2.00;;;1.20;;
31114;SDS011;17764;47.152;9.828;2022-07-29T08:21:34;2.42;;;1.17;;
31114;SDS011;17764;47.152;9.828;2022-07-29T08:24:01;4.07;;;1.40;;
31114;SDS011;17764;47.152;9.828;2022-07-29T08:26:45;2.58;;;1.10;;
31114;SDS011;17764;47.152;9.828;2022-07-29T08:29:11;1.98;;;1.30;;
31114;SDS011;17764;47.152;9.828;2022-07-29T08:31:38;2.95;;;1.40;;
31114;SDS011;17764;47.152;9.828;2022-07-29T08:34:04;3.95;;;1.40;;
31114;SDS011;17764;47.152;9.828;2022-07-29T08:36:30;2.60;;;1.63;;
31114;SDS011;17764;47.152;9.828;2022-07-29T08:38:56;1.83;;;1.60;;
31114;SDS011;17764;47.152;9.828;2022-07-29T08:41:23;3.60;;;1.40;;
31114;SDS011;17764;47.152;9.828;2022-07-29T08:43:49;2.65;;;1.50;;
31114;SDS011;17764;47.152;9.828;2022-07-29T08:46:16;1.80;;;1.50;;
31114;SDS011;17764;47.152;9.828;2022-07-29T08:48:43;4.57;;;1.70;;
31114;SDS011;17764;47.152;9.828;2022-07-29T08:51:12;1.60;;;1.30;;
31114;SDS011;17764;47.152;9.828;2022-07-29T08:53:40;3.63;;;1.60;;
31114;SDS011;17764;47.152;9.828;2022-07-29T08:56:07;3.88;;;1.40;;
31114;SDS011;17764;47.152;9.828;2022-07-29T08:58:36;3.30;;;1.85;;
31114;SDS011;17764;47.152;9.828;2022-07-29T09:01:02;2.40;;;1.30;;
31114;SDS011;17764;47.152;9.828;2022-07-29T09:03:32;1.63;;;1.30;;
31114;SDS011;17764;47.152;9.828;2022-07-29T09:06:00;1.60;;;1.50;;
31114;SDS011;17764;47.152;9.828;2022-07-29T09:08:26;2.20;;;1.50;;
31114;SDS011;17764;47.152;9.828;2022-07-29T09:10:53;1.83;;;1.30;;
31114;SDS011;17764;47.152;9.828;2022-07-29T09:13:20;1.45;;;1.30;;
31114;SDS011;17764;47.152;9.828;2022-07-29T09:15:46;1.67;;;1.38;;
31114;SDS011;17764;47.152;9.828;2022-07-29T09:18:24;1.52;;;1.17;;
31114;SDS011;17764;47.152;9.828;2022-07-29T09:20:58;2.35;;;1.15;;
31114;SDS011;17764;47.152;9.828;2022-07-29T09:26:45;1.48;;;1.27;;
31114;SDS011;17764;47.152;9.828;2022-07-29T09:29:15;2.22;;;1.75;;
31114;SDS011;17764;47.152;9.828;2022-07-29T09:31:43;1.75;;;1.50;;
31114;SDS011;17764;47.152;9.828;2022-07-29T09:34:10;2.50;;;1.40;;
31114;SDS011;17764;47.152;9.828;2022-07-29T09:36:40;1.88;;;1.50;;
31114;SDS011;17764;47.152;9.828;2022-07-29T09:39:13;1.73;;;1.40;;
31114;SDS011;17764;47.152;9.828;2022-07-29T09:41:49;1.52;;;1.40;;
31114;SDS011;17764;47.152;9.828;2022-07-29T09:44:17;1.80;;;1.35;;
31114;SDS011;17764;47.152;9.828;2022-07-29T09:47:01;1.30;;;1.20;;
31114;SDS011;17764;47.152;9.828;2022-07-29T09:52:28;1.85;;;1.40;;
31114;SDS011;17764;47.152;9.828;2022-07-29T09:55:04;2.00;;;1.42;;
31114;SDS011;17764;47.152;9.828;2022-07-29T09:57:30;1.25;;;1.15;;
31114;SDS011;17764;47.152;9.828;2022-07-29T10:02:31;1.30;;;1.20;;
31114;SDS011;17764;47.152;9.828;2022-07-29T10:04:58;2.60;;;1.60;;
31114;SDS011;17764;47.152;9.828;2022-07-29T10:07:25;1.27;;;1.17;;
31114;SDS011;17764;47.152;9.828;2022-07-29T10:09:54;2.08;;;1.33;;
31114;SDS011;17764;47.152;9.828;2022-07-29T10:12:21;1.90;;;1.70;;
31114;SDS011;17764;47.152;9.828;2022-07-29T10:14:47;1.52;;;1.30;;
31114;SDS011;17764;47.152;9.828;2022-07-29T10:17:14;1.92;;;1.40;;
31114;SDS011;17764;47.152;9.828;2022-07-29T10:19:41;1.88;;;1.38;;
31114;SDS011;17764;47.152;9.828;2022-07-29T10:22:08;2.75;;;1.20;;
31114;SDS011;17764;47.152;9.828;2022-07-29T10:24:36;1.33;;;1.23;;
31114;SDS011;17764;47.152;9.828;2022-07-29T10:27:03;4.88;;;1.30;;
31114;SDS011;17764;47.152;9.828;2022-07-29T10:29:29;2.45;;;1.60;;
31114;SDS011;17764;47.152;9.828;2022-07-29T10:34:36;1.77;;;1.23;;
31114;SDS011;17764;47.152;9.828;2022-07-29T10:37:33;2.13;;;1.30;;
31114;SDS011;17764;47.152;9.828;2022-07-29T10:42:54;1.40;;;1.20;;
31114;SDS011;17764;47.152;9.828;2022-07-29T10:45:23;1.65;;;1.20;;
31114;SDS011;17764;47.152;9.828;2022-07-29T10:47:49;1.23;;;1.13;;
31114;SDS011;17764;47.152;9.828;2022-07-29T10:50:27;1.88;;;1.48;;
31114;SDS011;17764;47.152;9.828;2022-07-29T10:53:13;3.90;;;1.17;;
31114;SDS011;17764;47.152;9.828;2022-07-29T10:55:39;3.38;;;1.20;;
31114;SDS011;17764;47.152;9.828;2022-07-29T11:00:38;1.70;;;1.30;;
31114;SDS011;17764;47.152;9.828;2022-07-29T11:03:04;1.92;;;1.23;;
31114;SDS011;17764;47.152;9.828;2022-07-29T11:05:30;1.45;;;1.20;;
31114;SDS011;17764;47.152;9.828;2022-07-29T11:08:17;1.60;;;1.50;;
31114;SDS011;17764;47.152;9.828;2022-07-29T11:10:46;1.55;;;1.15;;
31114;SDS011;17764;47.152;9.828;2022-07-29T11:13:18;1.25;;;1.10;;
31114;SDS011;17764;47.152;9.828;2022-07-29T11:16:18;1.65;;;1.08;;
31114;SDS011;17764;47.152;9.828;2022-07-29T11:21:35;1.55;;;1.20;;
31114;SDS011;17764;47.152;9.828;2022-07-29T11:24:13;1.15;;;1.05;;
31114;SDS011;17764;47.152;9.828;2022-07-29T11:26:39;1.23;;;1.13;;
31114;SDS011;17764;47.152;9.828;2022-07-29T11:29:23;1.42;;;1.00;;
31114;SDS011;17764;47.152;9.828;2022-07-29T11:31:50;2.10;;;1.10;;
31114;SDS011;17764;47.152;9.828;2022-07-29T11:34:31;1.73;;;1.13;;
31114;SDS011;17764;47.152;9.828;2022-07-29T11:44:53;3.40;;;1.23;;
31114;SDS011;17764;47.152;9.828;2022-07-29T11:47:21;1.95;;;1.20;;
31114;SDS011;17764;47.152;9.828;2022-07-29T11:49:47;2.05;;;1.30;;
31114;SDS011;17764;47.152;9.828;2022-07-29T11:52:13;1.38;;;1.10;;
31114;SDS011;17764;47.152;9.828;2022-07-29T11:54:39;1.45;;;1.20;;
31114;SDS011;17764;47.152;9.828;2022-07-29T11:57:07;1.73;;;1.00;;
31114;SDS011;17764;47.152;9.828;2022-07-29T11:59:40;1.60;;;1.17;;
31114;SDS011;17764;47.152;9.828;2022-07-29T12:02:07;1.40;;;1.30;;
31114;SDS011;17764;47.152;9.828;2022-07-29T12:04:33;1.73;;;1.20;;
31114;SDS011;17764;47.152;9.828;2022-07-29T12:06:59;1.50;;;1.10;;
31114;SDS011;17764;47.152;9.828;2022-07-29T12:09:26;2.28;;;1.30;;
31114;SDS011;17764;47.152;9.828;2022-07-29T12:11:58;3.17;;;2.30;;
31114;SDS011;17764;47.152;9.828;2022-07-29T12:14:30;1.83;;;1.50;;
31114;SDS011;17764;47.152;9.828;2022-07-29T12:16:57;1.65;;;1.27;;
31114;SDS011;17764;47.152;9.828;2022-07-29T12:19:24;1.88;;;1.20;;
31114;SDS011;17764;47.152;9.828;2022-07-29T12:21:51;1.65;;;1.20;;
31114;SDS011;17764;47.152;9.828;2022-07-29T12:24:17;1.58;;;1.35;;
31114;SDS011;17764;47.152;9.828;2022-07-29T12:29:16;1.95;;;1.20;;
31114;SDS011;17764;47.152;9.828;2022-07-29T12:31:42;1.65;;;1.20;;
31114;SDS011;17764;47.152;9.828;2022-07-29T12:34:09;2.13;;;1.10;;
31114;SDS011;17764;47.152;9.828;2022-07-29T12:36:36;3.05;;;1.17;;
31114;SDS011;17764;47.152;9.828;2022-07-29T12:39:02;2.22;;;1.17;;
31114;SDS011;17764;47.152;9.828;2022-07-29T12:41:29;1.90;;;1.20;;
31114;SDS011;17764;47.152;9.828;2022-07-29T12:43:55;1.45;;;1.35;;
31114;SDS011;17764;47.152;9.828;2022-07-29T12:46:21;2.13;;;1.20;;
31114;SDS011;17764;47.152;9.828;2022-07-29T12:48:50;1.48;;;1.13;;
31114;SDS011;17764;47.152;9.828;2022-07-29T12:51:28;1.50;;;1.25;;
31114;SDS011;17764;47.152;9.828;2022-07-29T12:54:11;1.25;;;1.15;;
31114;SDS011;17764;47.152;9.828;2022-07-29T12:56:38;1.70;;;1.08;;
31114;SDS011;17764;47.152;9.828;2022-07-29T13:01:38;1.83;;;1.30;;
31114;SDS011;17764;47.152;9.828;2022-07-29T13:04:04;2.88;;;1.13;;
31114;SDS011;17764;47.152;9.828;2022-07-29T13:06:44;1.70;;;1.00;;
31114;SDS011;17764;47.152;9.828;2022-07-29T13:11:40;1.35;;;1.25;;
31114;SDS011;17764;47.152;9.828;2022-07-29T13:14:08;1.80;;;1.15;;
31114;SDS011;17764;47.152;9.828;2022-07-29T13:16:34;1.63;;;1.30;;
31114;SDS011;17764;47.152;9.828;2022-07-29T13:19:18;2.13;;;1.10;;
31114;SDS011;17764;47.152;9.828;2022-07-29T13:21:44;1.20;;;1.10;;
31114;SDS011;17764;47.152;9.828;2022-07-29T13:24:10;2.47;;;1.10;;
31114;SDS011;17764;47.152;9.828;2022-07-29T13:26:39;1.80;;;1.20;;
31114;SDS011;17764;47.152;9.828;2022-07-29T13:29:06;1.63;;;1.00;;
31114;SDS011;17764;47.152;9.828;2022-07-29T13:31:32;2.78;;;1.40;;
31114;SDS011;17764;47.152;9.828;2022-07-29T13:33:58;2.55;;;1.30;;
31114;SDS011;17764;47.152;9.828;2022-07-29T13:36:24;2.40;;;1.40;;
31114;SDS011;17764;47.152;9.828;2022-07-29T13:38:50;1.45;;;1.30;;
31114;SDS011;17764;47.152;9.828;2022-07-29T13:41:16;2.00;;;1.52;;
31114;SDS011;17764;47.152;9.828;2022-07-29T13:43:42;2.22;;;1.25;;
31114;SDS011;17764;47.152;9.828;2022-07-29T13:46:08;1.52;;;1.27;;
31114;SDS011;17764;47.152;9.828;2022-07-29T13:48:34;3.50;;;1.60;;
31114;SDS011;17764;47.152;9.828;2022-07-29T13:51:00;1.42;;;1.33;;
31114;SDS011;17764;47.152;9.828;2022-07-29T13:53:26;2.35;;;1.70;;
31114;SDS011;17764;47.152;9.828;2022-07-29T13:55:53;1.42;;;1.33;;
31114;SDS011;17764;47.152;9.828;2022-07-29T13:58:20;1.83;;;1.50;;
31114;SDS011;17764;47.152;9.828;2022-07-29T14:00:46;1.40;;;1.30;;
31114;SDS011;17764;47.152;9.828;2022-07-29T14:03:12;3.45;;;1.63;;
31114;SDS011;17764;47.152;9.828;2022-07-29T14:05:38;2.90;;;1.40;;
31114;SDS011;17764;47.152;9.828;2022-07-29T14:08:04;2.28;;;1.55;;
31114;SDS011;17764;47.152;9.828;2022-07-29T14:10:30;3.13;;;1.67;;
31114;SDS011;17764;47.152;9.828;2022-07-29T14:12:56;1.88;;;1.48;;
31114;SDS011;17764;47.152;9.828;2022-07-29T14:15:22;1.48;;;1.38;;
31114;SDS011;17764;47.152;9.828;2022-07-29T14:17:48;2.65;;;1.58;;
31114;SDS011;17764;47.152;9.828;2022-07-29T14:20:14;4.85;;;1.55;;
31114;SDS011;17764;47.152;9.828;2022-07-29T14:22:40;2.25;;;1.50;;
31114;SDS011;17764;47.152;9.828;2022-07-29T14:25:07;3.00;;;2.03;;
31114;SDS011;17764;47.152;9.828;2022-07-29T14:27:33;2.55;;;1.30;;
31114;SDS011;17764;47.152;9.828;2022-07-29T14:29:59;2.13;;;1.50;;
31114;SDS011;17764;47.152;9.828;2022-07-29T14:32:25;2.35;;;1.80;;
31114;SDS011;17764;47.152;9.828;2022-07-29T14:34:51;1.80;;;1.50;;
31114;SDS011;17764;47.152;9.828;2022-07-29T14:37:17;1.75;;;1.40;;
31114;SDS011;17764;47.152;9.828;2022-07-29T14:39:44;2.65;;;1.42;;
31114;SDS011;17764;47.152;9.828;2022-07-29T14:42:10;1.65;;;1.20;;
31114;SDS011;17764;47.152;9.828;2022-07-29T14:44:37;1.77;;;1.48;;
31114;SDS011;17764;47.152;9.828;2022-07-29T14:47:04;1.60;;;1.38;;
31114;SDS011;17764;47.152;9.828;2022-07-29T14:49:30;3.78;;;1.70;;
31114;SDS011;17764;47.152;9.828;2022-07-29T14:51:56;2.08;;;1.50;;
31114;SDS011;17764;47.152;9.828;2022-07-29T14:54:22;2.33;;;1.50;;
31114;SDS011;17764;47.152;9.828;2022-07-29T14:56:48;2.63;;;1.42;;
31114;SDS011;17764;47.152;9.828;2022-07-29T14:59:15;2.33;;;1.65;;
31114;SDS011;17764;47.152;9.828;2022-07-29T15:01:41;3.47;;;1.55;;
31114;SDS011;17764;47.152;9.828;2022-07-29T15:04:08;1.65;;;1.40;;
31114;SDS011;17764;47.152;9.828;2022-07-29T15:06:34;1.75;;;1.33;;
31114;SDS011;17764;47.152;9.828;2022-07-29T15:09:01;1.80;;;1.40;;
31114;SDS011;17764;47.152;9.828;2022-07-29T15:11:27;1.90;;;1.45;;
31114;SDS011;17764;47.152;9.828;2022-07-29T15:13:53;1.90;;;1.60;;
31114;SDS011;17764;47.152;9.828;2022-07-29T15:16:19;1.67;;;1.55;;
31114;SDS011;17764;47.152;9.828;2022-07-29T15:18:45;1.73;;;1.48;;
31114;SDS011;17764;47.152;9.828;2022-07-29T15:21:11;2.15;;;1.20;;
31114;SDS011;17764;47.152;9.828;2022-07-29T15:23:37;2.00;;;1.63;;
31114;SDS011;17764;47.152;9.828;2022-07-29T15:26:03;2.08;;;1.60;;
31114;SDS011;17764;47.152;9.828;2022-07-29T15:28:30;2.65;;;1.55;;
31114;SDS011;17764;47.152;9.828;2022-07-29T15:30:56;2.08;;;1.35;;
31114;SDS011;17764;47.152;9.828;2022-07-29T15:33:22;2.42;;;1.50;;
31114;SDS011;17764;47.152;9.828;2022-07-29T15:35:48;2.67;;;1.88;;
31114;SDS011;17764;47.152;9.828;2022-07-29T15:38:15;2.20;;;1.67;;
31114;SDS011;17764;47.152;9.828;2022-07-29T15:40:41;2.42;;;1.60;;
31114;SDS011;17764;47.152;9.828;2022-07-29T15:43:08;2.25;;;1.70;;